Time,TemperatureF,DewpointF,PressureIn,WindDirection,WindDirectionDegrees,WindSpeedMPH,WindSpeedGustMPH,Humidity,HourlyPrecipIn,Conditions,Clouds,dailyrainin,SoftwareType,DateUTC
2013-08-18 00:00:00,57.0,52.8,29.69,South,180,0.0,0.0,86,0.00,,,0.00,WUHU216HW,2013-08-18 07:00:00,
2013-08-18 00:05:00,56.8,52.6,29.69,South,180,0.0,0.0,86,0.00,,,0.00,WUHU216HW,2013-08-18 07:05:00,
2013-08-18 00:10:00,56.8,52.9,29.70,South,180,0.0,0.0,87,0.00,,,0.00,WUHU216HW,2013-08-18 07:10:00,
2013-08-18 00:15:00,56.8,52.9,29.70,South,180,0.0,0.0,87,0.00,,,0.00,WUHU216HW,2013-08-18 07:15:00,
2013-08-18 00:20:00,56.8,52.9,29.70,South,180,0.0,0.0,87,0.00,,,0.00,WUHU216HW,2013-08-18 07:20:00,
2013-08-18 00:25:00,56.8,52.9,29.70,South,180,0.0,0.0,87,0.00,,,0.00,WUHU216HW,2013-08-18 07:25:00,
2013-08-18 00:30:00,57.0,53.1,29.71,South,180,0.0,0.0,87,0.00,,,0.00,WUHU216HW,2013-08-18 07:30:00,
2013-08-18 00:35:00,57.0,53.1,29.71,South,180,0.0,0.0,87,0.00,,,0.00,WUHU216HW,2013-08-18 07:35:00,
2013-08-18 00:40:00,57.0,53.1,29.70,South,180,0.0,0.0,87,0.00,,,0.00,WUHU216HW,2013-08-18 07:40:00,
2013-08-18 00:45:00,57.0,53.1,29.70,South,180,0.0,0.0,87,0.00,,,0.00,WUHU216HW,2013-08-18 07:45:00,
2013-08-18 00:50:00,57.3,53.5,29.71,South,180,0.0,0.0,87,0.00,,,0.00,WUHU216HW,2013-08-18 07:50:00,
2013-08-18 00:55:00,57.2,53.6,29.71,South,180,0.0,0.0,88,0.00,,,0.00,WUHU216HW,2013-08-18 07:55:00,
2013-08-18 01:00:00,57.3,53.8,29.71,South,180,0.0,0.0,88,0.00,,,0.00,WUHU216HW,2013-08-18 08:00:00,
2013-08-18 01:05:00,57.3,53.8,29.70,South,180,0.0,0.0,88,0.00,,,0.00,WUHU216HW,2013-08-18 08:05:00,
2013-08-18 01:10:00,57.3,53.8,29.70,South,180,0.0,0.0,88,0.00,,,0.00,WUHU216HW,2013-08-18 08:10:00,
2013-08-18 01:15:00,57.5,54.0,29.70,South,180,0.0,0.0,88,0.00,,,0.00,WUHU216HW,2013-08-18 08:15:00,
2013-08-18 01:20:00,57.5,54.0,29.70,South,180,0.0,0.0,88,0.00,,,0.00,WUHU216HW,2013-08-18 08:20:00,
2013-08-18 01:25:00,57.5,53.7,29.69,South,180,0.0,0.0,87,0.00,,,0.00,WUHU216HW,2013-08-18 08:25:00,
2013-08-18 01:30:00,57.7,53.8,29.69,South,180,0.0,0.0,87,0.00,,,0.00,WUHU216HW,2013-08-18 08:30:00,
2013-08-18 01:35:00,57.7,53.8,29.70,South,180,0.0,0.0,87,0.00,,,0.00,WUHU216HW,2013-08-18 08:35:00,
2013-08-18 01:40:00,57.7,53.8,29.70,South,180,0.0,0.0,87,0.00,,,0.00,WUHU216HW,2013-08-18 08:40:00,
2013-08-18 01:45:00,57.9,54.0,29.69,South,180,0.0,0.0,87,0.00,,,0.00,WUHU216HW,2013-08-18 08:45:00,
2013-08-18 01:50:00,57.9,54.3,29.69,South,180,0.0,0.0,88,0.00,,,0.00,WUHU216HW,2013-08-18 08:50:00,
2013-08-18 01:55:00,57.9,54.0,29.69,South,180,0.0,0.0,87,0.00,,,0.00,WUHU216HW,2013-08-18 08:55:00,
2013-08-18 02:00:00,57.9,54.0,29.69,South,180,0.0,0.0,87,0.00,,,0.00,WUHU216HW,2013-08-18 09:00:00,
2013-08-18 02:05:00,57.9,54.3,29.69,South,180,0.0,0.0,88,0.00,,,0.00,WUHU216HW,2013-08-18 09:05:00,
2013-08-18 02:10:00,57.9,54.3,29.69,South,180,0.0,0.0,88,0.00,,,0.00,WUHU216HW,2013-08-18 09:10:00,
2013-08-18 02:15:00,57.9,54.3,29.69,South,180,0.0,0.0,88,0.00,,,0.00,WUHU216HW,2013-08-18 09:15:00,
2013-08-18 02:20:00,57.7,54.2,29.69,South,180,0.0,0.0,88,0.00,,,0.00,WUHU216HW,2013-08-18 09:20:00,
2013-08-18 02:25:00,57.5,54.0,29.69,South,180,0.0,0.0,88,0.00,,,0.00,WUHU216HW,2013-08-18 09:25:00,
2013-08-18 02:30:00,57.3,53.8,29.70,South,180,0.0,0.0,88,0.00,,,0.00,WUHU216HW,2013-08-18 09:30:00,
2013-08-18 02:35:00,57.3,53.8,29.69,South,180,0.0,0.0,88,0.00,,,0.00,WUHU216HW,2013-08-18 09:35:00,
2013-08-18 02:40:00,57.0,53.4,29.69,South,180,0.0,0.0,88,0.00,,,0.00,WUHU216HW,2013-08-18 09:40:00,
2013-08-18 02:45:00,57.0,53.4,29.69,South,180,0.0,0.0,88,0.00,,,0.00,WUHU216HW,2013-08-18 09:45:00,
2013-08-18 02:50:00,56.8,53.1,29.70,South,180,0.0,0.0,88,0.00,,,0.00,WUHU216HW,2013-08-18 09:50:00,
2013-08-18 02:55:00,56.4,52.9,29.70,South,180,0.0,0.0,88,0.00,,,0.00,WUHU216HW,2013-08-18 09:55:00,
2013-08-18 03:00:00,56.4,52.9,29.69,South,180,0.0,0.0,88,0.00,,,0.00,WUHU216HW,2013-08-18 10:00:00,
2013-08-18 03:05:00,56.3,52.7,29.69,South,180,0.0,0.0,88,0.00,,,0.00,WUHU216HW,2013-08-18 10:05:00,
2013-08-18 03:10:00,55.9,52.4,29.70,South,180,0.0,0.0,88,0.00,,,0.00,WUHU216HW,2013-08-18 10:10:00,
2013-08-18 03:15:00,55.9,52.4,29.70,South,180,0.0,0.0,88,0.00,,,0.00,WUHU216HW,2013-08-18 10:15:00,
2013-08-18 03:20:00,55.5,52.0,29.70,South,180,0.0,0.0,88,0.00,,,0.00,WUHU216HW,2013-08-18 10:20:00,
2013-08-18 03:25:00,55.5,52.0,29.70,South,180,0.0,0.0,88,0.00,,,0.00,WUHU216HW,2013-08-18 10:25:00,
2013-08-18 03:30:00,55.2,51.6,29.70,South,180,0.0,0.0,88,0.00,,,0.00,WUHU216HW,2013-08-18 10:30:00,
2013-08-18 03:35:00,55.2,51.6,29.71,South,180,0.0,0.0,88,0.00,,,0.00,WUHU216HW,2013-08-18 10:35:00,
2013-08-18 03:40:00,55.0,51.5,29.70,South,180,0.0,0.0,88,0.00,,,0.00,WUHU216HW,2013-08-18 10:40:00,
2013-08-18 03:45:00,55.0,51.5,29.71,South,180,0.0,0.0,88,0.00,,,0.00,WUHU216HW,2013-08-18 10:45:00,
2013-08-18 03:50:00,54.8,51.6,29.71,South,180,0.0,0.0,89,0.00,,,0.00,WUHU216HW,2013-08-18 10:50:00,
2013-08-18 03:55:00,54.6,51.4,29.71,South,180,0.0,0.0,89,0.00,,,0.00,WUHU216HW,2013-08-18 10:55:00,
2013-08-18 04:00:00,54.6,51.4,29.71,South,180,0.0,0.0,89,0.00,,,0.00,WUHU216HW,2013-08-18 11:00:00,
2013-08-18 04:05:00,54.6,51.4,29.71,South,180,0.0,0.0,89,0.00,,,0.00,WUHU216HW,2013-08-18 11:05:00,
2013-08-18 04:10:00,54.6,51.4,29.71,South,180,0.0,0.0,89,0.00,,,0.00,WUHU216HW,2013-08-18 11:10:00,
2013-08-18 04:15:00,54.6,51.4,29.71,South,180,0.0,0.0,89,0.00,,,0.00,WUHU216HW,2013-08-18 11:15:00,
2013-08-18 04:20:00,54.6,51.4,29.71,South,180,0.0,0.0,89,0.00,,,0.00,WUHU216HW,2013-08-18 11:20:00,
2013-08-18 04:25:00,54.6,51.4,29.70,South,180,0.0,0.0,89,0.00,,,0.00,WUHU216HW,2013-08-18 11:25:00,
2013-08-18 04:30:00,54.6,51.4,29.71,South,180,0.0,0.0,89,0.00,,,0.00,WUHU216HW,2013-08-18 11:30:00,
2013-08-18 04:35:00,54.8,51.6,29.70,South,180,0.0,0.0,89,0.00,,,0.00,WUHU216HW,2013-08-18 11:35:00,
2013-08-18 04:40:00,54.8,51.6,29.70,South,180,0.0,0.0,89,0.00,,,0.00,WUHU216HW,2013-08-18 11:40:00,
2013-08-18 04:45:00,55.0,51.8,29.70,South,180,0.0,0.0,89,0.00,,,0.00,WUHU216HW,2013-08-18 11:45:00,
2013-08-18 04:50:00,55.0,51.8,29.70,South,180,0.0,0.0,89,0.00,,,0.00,WUHU216HW,2013-08-18 11:50:00,
2013-08-18 04:55:00,55.0,51.8,29.71,South,180,0.0,0.0,89,0.00,,,0.00,WUHU216HW,2013-08-18 11:55:00,
2013-08-18 05:00:00,55.0,51.8,29.70,South,180,0.0,0.0,89,0.00,,,0.00,WUHU216HW,2013-08-18 12:00:00,
2013-08-18 05:05:00,55.2,52.0,29.70,South,180,0.0,0.0,89,0.00,,,0.00,WUHU216HW,2013-08-18 12:05:00,
2013-08-18 05:10:00,55.2,52.0,29.71,South,180,0.0,0.0,89,0.00,,,0.00,WUHU216HW,2013-08-18 12:10:00,
2013-08-18 05:15:00,55.2,52.0,29.70,South,180,0.0,0.0,89,0.00,,,0.00,WUHU216HW,2013-08-18 12:15:00,
2013-08-18 05:20:00,55.2,52.0,29.71,South,180,0.0,0.0,89,0.00,,,0.00,WUHU216HW,2013-08-18 12:20:00,
2013-08-18 05:25:00,55.4,52.5,29.71,South,180,0.0,0.0,90,0.00,,,0.00,WUHU216HW,2013-08-18 12:25:00,
2013-08-18 05:30:00,55.4,52.5,29.71,South,180,0.0,0.0,90,0.00,,,0.00,WUHU216HW,2013-08-18 12:30:00,
2013-08-18 05:35:00,55.5,52.7,29.71,South,180,0.0,0.0,90,0.00,,,0.00,WUHU216HW,2013-08-18 12:35:00,
2013-08-18 05:40:00,55.5,52.7,29.70,South,180,0.0,0.0,90,0.00,,,0.00,WUHU216HW,2013-08-18 12:40:00,
2013-08-18 05:45:00,55.5,52.7,29.71,South,180,0.0,0.0,90,0.00,,,0.00,WUHU216HW,2013-08-18 12:45:00,
2013-08-18 05:50:00,55.5,52.7,29.71,South,180,0.0,0.0,90,0.00,,,0.00,WUHU216HW,2013-08-18 12:50:00,
2013-08-18 05:55:00,55.5,52.7,29.71,South,180,0.0,0.0,90,0.00,,,0.00,WUHU216HW,2013-08-18 12:55:00,
2013-08-18 06:00:00,55.5,52.7,29.71,South,180,0.0,0.0,90,0.00,,,0.00,WUHU216HW,2013-08-18 13:00:00,
2013-08-18 06:05:00,55.5,52.3,29.71,South,180,0.0,0.0,89,0.00,,,0.00,WUHU216HW,2013-08-18 13:05:00,
2013-08-18 06:10:00,55.5,52.3,29.71,South,180,0.0,0.0,89,0.00,,,0.00,WUHU216HW,2013-08-18 13:10:00,
2013-08-18 06:15:00,55.5,52.3,29.71,South,180,0.0,0.0,89,0.00,,,0.00,WUHU216HW,2013-08-18 13:15:00,
2013-08-18 06:20:00,55.7,52.5,29.72,South,180,0.0,0.0,89,0.00,,,0.00,WUHU216HW,2013-08-18 13:20:00,
2013-08-18 06:25:00,55.7,52.5,29.72,South,180,0.0,0.0,89,0.00,,,0.00,WUHU216HW,2013-08-18 13:25:00,
2013-08-18 06:30:00,55.9,52.7,29.72,South,180,0.0,0.0,89,0.00,,,0.00,WUHU216HW,2013-08-18 13:30:00,
2013-08-18 06:35:00,55.9,52.7,29.72,South,180,0.0,0.0,89,0.00,,,0.00,WUHU216HW,2013-08-18 13:35:00,
2013-08-18 06:40:00,55.9,52.7,29.72,South,180,0.0,0.0,89,0.00,,,0.00,WUHU216HW,2013-08-18 13:40:00,
2013-08-18 06:45:00,55.9,52.7,29.72,South,180,0.0,0.0,89,0.00,,,0.00,WUHU216HW,2013-08-18 13:45:00,
2013-08-18 06:50:00,55.9,52.7,29.72,South,180,0.0,0.0,89,0.00,,,0.00,WUHU216HW,2013-08-18 13:50:00,
2013-08-18 06:55:00,55.9,52.7,29.72,South,180,0.0,0.0,89,0.00,,,0.00,WUHU216HW,2013-08-18 13:55:00,
2013-08-18 07:00:00,55.9,52.7,29.72,South,180,0.0,0.0,89,0.00,,,0.00,WUHU216HW,2013-08-18 14:00:00,
2013-08-18 07:05:00,56.1,52.9,29.72,South,180,0.0,0.0,89,0.00,,,0.00,WUHU216HW,2013-08-18 14:05:00,
2013-08-18 07:10:00,56.1,52.9,29.72,South,180,0.0,0.0,89,0.00,,,0.00,WUHU216HW,2013-08-18 14:10:00,
2013-08-18 07:15:00,56.1,52.9,29.73,South,180,0.0,0.0,89,0.00,,,0.00,WUHU216HW,2013-08-18 14:15:00,
2013-08-18 07:20:00,56.3,53.0,29.72,South,180,0.0,0.0,89,0.00,,,0.00,WUHU216HW,2013-08-18 14:20:00,
2013-08-18 07:25:00,56.3,53.0,29.72,South,180,0.0,0.0,89,0.00,,,0.00,WUHU216HW,2013-08-18 14:25:00,
2013-08-18 07:30:00,56.1,52.9,29.73,South,180,0.0,0.0,89,0.00,,,0.00,WUHU216HW,2013-08-18 14:30:00,
2013-08-18 07:35:00,55.9,52.7,29.72,South,180,0.0,0.0,89,0.00,,,0.00,WUHU216HW,2013-08-18 14:35:00,
2013-08-18 07:40:00,55.9,52.7,29.72,South,180,0.0,0.0,89,0.00,,,0.00,WUHU216HW,2013-08-18 14:40:00,
2013-08-18 07:45:00,55.9,52.7,29.72,South,180,0.0,0.0,89,0.00,,,0.00,WUHU216HW,2013-08-18 14:45:00,
2013-08-18 07:50:00,55.9,53.0,29.72,South,180,0.0,0.0,90,0.00,,,0.00,WUHU216HW,2013-08-18 14:50:00,
2013-08-18 07:55:00,55.7,52.8,29.73,South,180,0.0,0.0,90,0.00,,,0.00,WUHU216HW,2013-08-18 14:55:00,
2013-08-18 08:00:00,55.7,52.8,29.73,South,180,0.0,0.0,90,0.00,,,0.00,WUHU216HW,2013-08-18 15:00:00,
2013-08-18 08:05:00,55.7,52.8,29.73,South,180,0.0,0.0,90,0.00,,,0.00,WUHU216HW,2013-08-18 15:05:00,
2013-08-18 08:10:00,55.9,53.0,29.72,South,180,0.0,0.0,90,0.00,,,0.00,WUHU216HW,2013-08-18 15:10:00,
2013-08-18 08:15:00,55.9,53.0,29.72,South,180,0.0,0.0,90,0.00,,,0.00,WUHU216HW,2013-08-18 15:15:00,
2013-08-18 08:20:00,55.9,53.0,29.72,South,180,0.0,0.0,90,0.00,,,0.00,WUHU216HW,2013-08-18 15:20:00,
2013-08-18 08:25:00,55.9,53.0,29.73,South,180,0.0,0.0,90,0.00,,,0.00,WUHU216HW,2013-08-18 15:25:00,
2013-08-18 08:30:00,56.1,53.2,29.73,South,180,0.0,0.0,90,0.00,,,0.00,WUHU216HW,2013-08-18 15:30:00,
2013-08-18 08:35:00,56.1,53.5,29.73,South,180,0.0,0.0,91,0.00,,,0.00,WUHU216HW,2013-08-18 15:35:00,
2013-08-18 08:40:00,56.4,53.8,29.72,South,180,0.0,0.0,91,0.00,,,0.00,WUHU216HW,2013-08-18 15:40:00,
2013-08-18 08:45:00,57.0,54.4,29.72,South,180,0.0,0.0,91,0.00,,,0.00,WUHU216HW,2013-08-18 15:45:00,
2013-08-18 08:50:00,57.3,54.5,29.72,South,180,0.0,0.0,90,0.00,,,0.00,WUHU216HW,2013-08-18 15:50:00,
2013-08-18 08:55:00,57.3,54.5,29.72,South,180,0.0,0.0,90,0.00,,,0.00,WUHU216HW,2013-08-18 15:55:00,
2013-08-18 09:00:00,57.5,54.6,29.72,South,180,0.0,0.0,90,0.00,,,0.00,WUHU216HW,2013-08-18 16:00:00,
2013-08-18 09:05:00,57.7,54.8,29.73,South,180,0.0,0.0,90,0.00,,,0.00,WUHU216HW,2013-08-18 16:05:00,
2013-08-18 09:10:00,57.9,55.0,29.72,South,180,0.0,0.0,89,0.00,,,0.00,WUHU216HW,2013-08-18 16:10:00,
2013-08-18 09:15:00,58.2,55.0,29.72,South,180,0.0,0.0,89,0.00,,,0.00,WUHU216HW,2013-08-18 16:15:00,
2013-08-18 09:20:00,58.8,55.2,29.72,South,180,0.0,0.0,88,0.00,,,0.00,WUHU216HW,2013-08-18 16:20:00,
2013-08-18 09:25:00,58.8,54.9,29.72,South,180,0.0,0.0,87,0.00,,,0.00,WUHU216HW,2013-08-18 16:25:00,
2013-08-18 09:30:00,58.8,54.9,29.72,South,180,0.0,0.0,87,0.00,,,0.00,WUHU216HW,2013-08-18 16:30:00,
2013-08-18 09:35:00,59.5,55.6,29.72,South,180,0.0,0.0,87,0.00,,,0.00,WUHU216HW,2013-08-18 16:35:00,
2013-08-18 09:40:00,59.5,55.6,29.72,South,180,0.0,0.0,87,0.00,,,0.00,WUHU216HW,2013-08-18 16:40:00,
2013-08-18 09:45:00,60.0,56.2,29.72,South,180,0.0,0.0,87,0.00,,,0.00,WUHU216HW,2013-08-18 16:45:00,
2013-08-18 09:50:00,60.2,56.4,29.72,South,180,0.0,0.0,87,0.00,,,0.00,WUHU216HW,2013-08-18 16:50:00,
2013-08-18 09:55:00,60.6,56.1,29.72,South,180,0.0,0.0,85,0.00,,,0.00,WUHU216HW,2013-08-18 16:55:00,
2013-08-18 10:00:00,60.6,56.1,29.72,South,180,0.0,0.0,85,0.00,,,0.00,WUHU216HW,2013-08-18 17:00:00,
2013-08-18 10:05:00,60.9,56.1,29.72,SSE,158,0.0,0.0,84,0.00,,,0.00,WUHU216HW,2013-08-18 17:05:00,
2013-08-18 10:10:00,61.3,56.1,29.72,SSE,158,0.0,0.0,83,0.00,,,0.00,WUHU216HW,2013-08-18 17:10:00,
2013-08-18 10:15:00,61.3,56.1,29.72,SSE,158,0.0,0.0,83,0.00,,,0.00,WUHU216HW,2013-08-18 17:15:00,
2013-08-18 10:20:00,62.0,56.8,29.72,SSE,158,0.0,0.0,83,0.00,,,0.00,WUHU216HW,2013-08-18 17:20:00,
2013-08-18 10:25:00,62.4,57.1,29.72,SSE,158,0.0,0.0,83,0.00,,,0.00,WUHU216HW,2013-08-18 17:25:00,
2013-08-18 10:30:00,62.7,57.1,29.72,SSE,158,0.0,0.0,82,0.00,,,0.00,WUHU216HW,2013-08-18 17:30:00,
2013-08-18 10:35:00,63.3,57.0,29.72,SSW,203,0.0,0.0,80,0.00,,,0.00,WUHU216HW,2013-08-18 17:35:00,
2013-08-18 10:40:00,64.2,57.2,29.72,West,270,0.0,0.0,78,0.00,,,0.00,WUHU216HW,2013-08-18 17:40:00,
2013-08-18 10:45:00,65.3,58.2,29.72,West,270,0.0,0.0,78,0.00,,,0.00,WUHU216HW,2013-08-18 17:45:00,
2013-08-18 10:50:00,66.7,58.9,29.72,West,270,0.0,0.0,76,0.00,,,0.00,WUHU216HW,2013-08-18 17:50:00,
2013-08-18 10:55:00,69.0,59.6,29.72,SW,225,0.0,0.0,72,0.00,,,0.00,WUHU216HW,2013-08-18 17:55:00,
2013-08-18 11:00:00,70.5,59.8,29.72,SSW,203,0.0,0.0,69,0.00,,,0.00,WUHU216HW,2013-08-18 18:00:00,
2013-08-18 11:05:00,72.5,61.7,29.72,WSW,248,0.0,0.0,69,0.00,,,0.00,WUHU216HW,2013-08-18 18:05:00,
2013-08-18 11:10:00,73.5,61.5,29.72,SE,135,0.0,0.0,66,0.00,,,0.00,WUHU216HW,2013-08-18 18:10:00,
2013-08-18 11:15:00,74.6,62.5,29.72,SW,225,0.0,0.0,66,0.00,,,0.00,WUHU216HW,2013-08-18 18:15:00,
2013-08-18 11:20:00,76.2,62.7,29.72,SW,225,0.0,0.0,63,0.00,,,0.00,WUHU216HW,2013-08-18 18:20:00,
2013-08-18 11:25:00,77.3,62.8,29.72,WSW,248,0.0,0.0,61,0.00,,,0.00,WUHU216HW,2013-08-18 18:25:00,
2013-08-18 11:30:00,77.9,62.9,29.72,WSW,248,0.0,0.0,60,0.00,,,0.00,WUHU216HW,2013-08-18 18:30:00,
2013-08-18 11:35:00,78.6,62.6,29.72,SW,225,0.0,0.0,58,0.00,,,0.00,WUHU216HW,2013-08-18 18:35:00,
2013-08-18 11:40:00,79.1,62.6,29.72,SW,225,0.0,0.0,57,0.00,,,0.00,WUHU216HW,2013-08-18 18:40:00,
2013-08-18 11:45:00,79.7,62.5,29.71,NE,45,0.0,0.0,56,0.00,,,0.00,WUHU216HW,2013-08-18 18:45:00,
2013-08-18 11:50:00,80.4,62.7,29.72,NE,45,0.0,0.0,55,0.00,,,0.00,WUHU216HW,2013-08-18 18:50:00,
2013-08-18 11:55:00,80.4,62.1,29.71,West,270,0.0,0.0,54,0.00,,,0.00,WUHU216HW,2013-08-18 18:55:00,
2013-08-18 12:00:00,80.4,61.6,29.71,West,270,0.0,0.0,53,0.00,,,0.00,WUHU216HW,2013-08-18 19:00:00,
2013-08-18 12:05:00,80.2,60.9,29.71,WSW,248,0.0,0.0,52,0.00,,,0.00,WUHU216HW,2013-08-18 19:05:00,
2013-08-18 12:10:00,80.2,61.1,29.71,NE,45,0.0,0.0,52,0.00,,,0.00,WUHU216HW,2013-08-18 19:10:00,
2013-08-18 12:15:00,80.7,61.4,29.70,North,0,1.1,1.1,52,0.00,,,0.00,WUHU216HW,2013-08-18 19:15:00,
2013-08-18 12:20:00,81.3,61.4,29.71,NW,315,0.0,1.1,51,0.00,,,0.00,WUHU216HW,2013-08-18 19:20:00,
2013-08-18 12:25:00,81.6,62.2,29.71,WSW,248,0.0,0.0,52,0.00,,,0.00,WUHU216HW,2013-08-18 19:25:00,
2013-08-18 12:30:00,82.2,62.2,29.70,NNE,23,0.8,0.8,51,0.00,,,0.00,WUHU216HW,2013-08-18 19:30:00,
2013-08-18 12:35:00,81.8,60.1,29.70,East,90,0.0,0.8,48,0.00,,,0.00,WUHU216HW,2013-08-18 19:35:00,
2013-08-18 12:40:00,81.8,61.3,29.70,NW,315,0.0,0.0,50,0.00,,,0.00,WUHU216HW,2013-08-18 19:40:00,
2013-08-18 12:45:00,82.4,61.8,29.70,West,270,0.0,0.0,50,0.00,,,0.00,WUHU216HW,2013-08-18 19:45:00,
2013-08-18 12:50:00,82.0,60.3,29.70,WNW,293,0.0,0.8,48,0.00,,,0.00,WUHU216HW,2013-08-18 19:50:00,
2013-08-18 12:55:00,82.2,61.1,29.70,North,0,0.0,0.8,49,0.00,,,0.00,WUHU216HW,2013-08-18 19:55:00,
2013-08-18 13:00:00,82.2,60.4,29.70,WSW,248,0.0,0.0,48,0.00,,,0.00,WUHU216HW,2013-08-18 20:00:00,
2013-08-18 13:05:00,81.6,60.0,29.70,WNW,293,0.0,2.0,48,0.00,,,0.00,WUHU216HW,2013-08-18 20:05:00,
2013-08-18 13:10:00,81.6,60.6,29.70,NNW,338,0.0,2.0,49,0.00,,,0.00,WUHU216HW,2013-08-18 20:10:00,
2013-08-18 13:15:00,82.2,60.4,29.70,North,0,0.0,0.0,48,0.00,,,0.00,WUHU216HW,2013-08-18 20:15:00,
2013-08-18 13:20:00,82.5,60.2,29.70,West,270,0.0,0.0,47,0.00,,,0.00,WUHU216HW,2013-08-18 20:20:00,
2013-08-18 13:25:00,82.5,60.8,29.70,West,270,0.0,0.0,48,0.00,,,0.00,WUHU216HW,2013-08-18 20:25:00,
2013-08-18 13:30:00,82.5,60.2,29.70,NNE,23,0.0,0.0,47,0.00,,,0.00,WUHU216HW,2013-08-18 20:30:00,
2013-08-18 13:35:00,82.0,59.7,29.71,SSW,203,1.7,1.7,47,0.00,,,0.00,WUHU216HW,2013-08-18 20:35:00,
2013-08-18 13:40:00,82.0,60.3,29.70,NNE,23,0.0,1.7,48,0.00,,,0.00,WUHU216HW,2013-08-18 20:40:00,
2013-08-18 13:45:00,82.2,59.8,29.71,SW,225,0.0,1.7,47,0.00,,,0.00,WUHU216HW,2013-08-18 20:45:00,
2013-08-18 13:50:00,82.5,61.4,29.70,NE,45,0.0,0.0,49,0.00,,,0.00,WUHU216HW,2013-08-18 20:50:00,
2013-08-18 13:55:00,82.0,60.3,29.70,North,0,0.0,0.0,48,0.00,,,0.00,WUHU216HW,2013-08-18 20:55:00,
2013-08-18 14:00:00,82.0,60.9,29.70,NNW,338,0.0,0.0,49,0.00,,,0.00,WUHU216HW,2013-08-18 21:00:00,
2013-08-18 14:05:00,82.0,60.9,29.70,North,0,0.0,0.0,49,0.00,,,0.00,WUHU216HW,2013-08-18 21:05:00,
2013-08-18 14:10:00,81.8,60.7,29.70,North,0,0.0,0.0,49,0.00,,,0.00,WUHU216HW,2013-08-18 21:10:00,
2013-08-18 14:15:00,81.1,60.1,29.70,South,180,1.7,1.7,49,0.00,,,0.00,WUHU216HW,2013-08-18 21:15:00,
2013-08-18 14:20:00,81.1,60.7,29.70,North,0,2.0,2.0,50,0.00,,,0.00,WUHU216HW,2013-08-18 21:20:00,
2013-08-18 14:25:00,81.1,60.7,29.70,West,270,0.0,2.0,50,0.00,,,0.00,WUHU216HW,2013-08-18 21:25:00,
2013-08-18 14:30:00,80.6,59.6,29.71,North,0,2.4,2.4,49,0.00,,,0.00,WUHU216HW,2013-08-18 21:30:00,
2013-08-18 14:35:00,80.2,60.4,29.71,SW,225,0.0,2.4,51,0.00,,,0.00,WUHU216HW,2013-08-18 21:35:00,
2013-08-18 14:40:00,79.8,59.6,29.70,SSW,203,0.0,1.5,50,0.00,,,0.00,WUHU216HW,2013-08-18 21:40:00,
2013-08-18 14:45:00,79.1,58.9,29.70,SSW,203,1.5,1.5,50,0.00,,,0.00,WUHU216HW,2013-08-18 21:45:00,
2013-08-18 14:50:00,78.6,58.9,29.70,NNE,23,0.0,1.5,51,0.00,,,0.00,WUHU216HW,2013-08-18 21:50:00,
2013-08-18 14:55:00,78.6,59.5,29.70,NW,315,0.0,0.0,52,0.00,,,0.00,WUHU216HW,2013-08-18 21:55:00,
2013-08-18 15:00:00,78.6,59.5,29.70,ENE,68,0.0,0.0,52,0.00,,,0.00,WUHU216HW,2013-08-18 22:00:00,
2013-08-18 15:05:00,77.9,59.3,29.69,WSW,248,0.0,0.0,53,0.00,,,0.00,WUHU216HW,2013-08-18 22:05:00,
2013-08-18 15:10:00,77.5,59.0,29.70,North,0,1.7,1.7,53,0.00,,,0.00,WUHU216HW,2013-08-18 22:10:00,
2013-08-18 15:15:00,77.3,59.3,29.69,North,0,2.4,2.4,54,0.00,,,0.00,WUHU216HW,2013-08-18 22:15:00,
2013-08-18 15:20:00,77.1,59.1,29.70,North,0,0.0,2.4,54,0.00,,,0.00,WUHU216HW,2013-08-18 22:20:00,
2013-08-18 15:25:00,77.0,59.0,29.69,North,0,0.0,0.0,54,0.00,,,0.00,WUHU216HW,2013-08-18 22:25:00,
2013-08-18 15:30:00,76.6,59.2,29.69,North,0,0.6,0.6,55,0.00,,,0.00,WUHU216HW,2013-08-18 22:30:00,
2013-08-18 15:35:00,76.4,59.0,29.69,South,180,0.0,1.1,55,0.00,,,0.00,WUHU216HW,2013-08-18 22:35:00,
2013-08-18 15:40:00,76.1,58.7,29.69,WNW,293,0.0,1.1,55,0.00,,,0.00,WUHU216HW,2013-08-18 22:40:00,
2013-08-18 15:45:00,75.9,58.5,29.69,WNW,293,0.0,0.0,55,0.00,,,0.00,WUHU216HW,2013-08-18 22:45:00,
2013-08-18 15:50:00,75.9,59.0,29.68,West,270,0.0,0.0,56,0.00,,,0.00,WUHU216HW,2013-08-18 22:50:00,
2013-08-18 15:55:00,75.9,58.5,29.68,North,0,0.0,0.0,55,0.00,,,0.00,WUHU216HW,2013-08-18 22:55:00,
2013-08-18 16:00:00,75.7,58.9,29.69,West,270,0.0,0.0,56,0.00,,,0.00,WUHU216HW,2013-08-18 23:00:00,
2013-08-18 16:05:00,75.7,58.9,29.68,South,180,0.0,0.0,56,0.00,,,0.00,WUHU216HW,2013-08-18 23:05:00,
2013-08-18 16:10:00,75.5,58.7,29.68,North,0,2.6,2.6,56,0.00,,,0.00,WUHU216HW,2013-08-18 23:10:00,
2013-08-18 16:15:00,75.5,58.7,29.68,WNW,293,0.0,2.6,56,0.00,,,0.00,WUHU216HW,2013-08-18 23:15:00,
2013-08-18 16:20:00,75.0,58.7,29.68,SW,225,0.0,0.0,57,0.00,,,0.00,WUHU216HW,2013-08-18 23:20:00,
2013-08-18 16:26:00,75.0,58.7,29.68,WNW,293,0.0,0.0,56,0.00,,,0.00,WUHU216HW,2013-08-18 23:26:00,
2013-08-18 16:31:00,75.0,58.7,29.68,NW,315,0.0,0.0,57,0.00,,,0.00,WUHU216HW,2013-08-18 23:31:00,
2013-08-18 16:36:00,74.8,59.0,29.68,WSW,248,0.0,0.0,58,0.00,,,0.00,WUHU216HW,2013-08-18 23:36:00,
2013-08-18 16:41:00,74.4,59.2,29.68,North,0,0.0,0.0,59,0.00,,,0.00,WUHU216HW,2013-08-18 23:41:00,
2013-08-18 16:46:00,74.4,59.7,29.68,West,270,0.0,0.0,60,0.00,,,0.00,WUHU216HW,2013-08-18 23:46:00,
2013-08-18 16:51:00,74.3,59.9,29.68,WNW,293,0.0,0.0,61,0.00,,,0.00,WUHU216HW,2013-08-18 23:51:00,
2013-08-18 16:56:00,73.9,59.1,29.68,SW,225,0.0,0.0,60,0.00,,,0.00,WUHU216HW,2013-08-18 23:56:00,
2013-08-18 17:01:00,73.7,58.4,29.67,SSW,203,0.0,0.0,59,0.00,,,0.00,WUHU216HW,2013-08-19 00:01:00,
2013-08-18 17:06:00,73.5,58.8,29.67,NNE,23,1.3,1.3,60,0.00,,,0.00,WUHU216HW,2013-08-19 00:06:00,
2013-08-18 17:11:00,73.2,58.9,29.68,SSW,203,0.0,1.3,61,0.00,,,0.00,WUHU216HW,2013-08-19 00:11:00,
2013-08-18 17:16:00,73.2,59.3,29.68,SSW,203,0.0,1.3,62,0.00,,,0.00,WUHU216HW,2013-08-19 00:16:00,
2013-08-18 17:21:00,73.0,59.1,29.68,SSW,203,0.0,0.0,62,0.00,,,0.00,WUHU216HW,2013-08-19 00:21:00,
2013-08-18 17:26:00,72.8,59.0,29.68,SSW,203,0.0,0.0,62,0.00,,,0.00,WUHU216HW,2013-08-19 00:26:00,
2013-08-18 17:31:00,72.6,59.3,29.68,SSW,203,0.0,0.0,63,0.00,,,0.00,WUHU216HW,2013-08-19 00:31:00,
2013-08-18 17:36:00,72.5,59.1,29.67,South,180,0.0,0.0,63,0.00,,,0.00,WUHU216HW,2013-08-19 00:36:00,
2013-08-18 17:41:00,72.3,58.9,29.68,South,180,0.0,0.0,63,0.00,,,0.00,WUHU216HW,2013-08-19 00:41:00,
2013-08-18 17:46:00,72.1,59.2,29.68,ESE,113,0.0,0.0,64,0.00,,,0.00,WUHU216HW,2013-08-19 00:46:00,
2013-08-18 17:51:00,71.7,58.9,29.68,East,90,0.0,0.0,64,0.00,,,0.00,WUHU216HW,2013-08-19 00:51:00,
2013-08-18 17:56:00,71.4,59.4,29.67,NE,45,0.0,0.0,66,0.00,,,0.00,WUHU216HW,2013-08-19 00:56:00,
2013-08-18 18:01:00,71.4,59.4,29.68,NE,45,0.0,0.0,66,0.00,,,0.00,WUHU216HW,2013-08-19 01:01:00,
2013-08-18 18:06:00,71.2,59.2,29.67,NE,45,0.0,0.0,66,0.00,,,0.00,WUHU216HW,2013-08-19 01:06:00,
2013-08-18 18:11:00,70.8,58.9,29.67,NE,45,0.0,0.0,66,0.00,,,0.00,WUHU216HW,2013-08-19 01:11:00,
2013-08-18 18:16:00,70.8,58.9,29.67,WSW,248,0.0,0.0,66,0.00,,,0.00,WUHU216HW,2013-08-19 01:16:00,
2013-08-18 18:21:00,70.7,58.7,29.67,WSW,248,0.0,0.0,66,0.00,,,0.00,WUHU216HW,2013-08-19 01:21:00,
2013-08-18 18:26:00,70.5,58.9,29.67,West,270,0.0,0.0,67,0.00,,,0.00,WUHU216HW,2013-08-19 01:26:00,
2013-08-18 18:31:00,70.3,58.3,29.67,West,270,0.0,0.0,66,0.00,,,0.00,WUHU216HW,2013-08-19 01:31:00,
2013-08-18 18:36:00,69.9,58.4,29.67,West,270,0.0,0.0,67,0.00,,,0.00,WUHU216HW,2013-08-19 01:36:00,
2013-08-18 18:41:00,69.6,58.5,29.67,WSW,248,0.0,0.0,68,0.00,,,0.00,WUHU216HW,2013-08-19 01:41:00,
2013-08-18 18:46:00,69.4,58.3,29.67,SW,225,0.0,0.0,68,0.00,,,0.00,WUHU216HW,2013-08-19 01:46:00,
2013-08-18 18:51:00,69.2,58.2,29.67,SW,225,0.0,0.0,68,0.00,,,0.00,WUHU216HW,2013-08-19 01:51:00,
2013-08-18 18:56:00,68.9,57.8,29.67,North,0,0.0,0.0,68,0.00,,,0.00,WUHU216HW,2013-08-19 01:56:00,
2013-08-18 19:01:00,68.7,58.1,29.67,North,0,0.0,0.0,69,0.00,,,0.00,WUHU216HW,2013-08-19 02:01:00,
2013-08-18 19:06:00,68.5,58.4,29.67,North,0,0.0,0.0,70,0.00,,,0.00,WUHU216HW,2013-08-19 02:06:00,
2013-08-18 19:11:00,68.1,58.0,29.67,SW,225,0.0,0.0,70,0.00,,,0.00,WUHU216HW,2013-08-19 02:11:00,
2013-08-18 19:16:00,68.1,58.0,29.67,SW,225,0.0,0.0,70,0.00,,,0.00,WUHU216HW,2013-08-19 02:16:00,
2013-08-18 19:21:00,67.8,57.7,29.67,SW,225,0.0,0.0,70,0.00,,,0.00,WUHU216HW,2013-08-19 02:21:00,
2013-08-18 19:26:00,67.6,57.9,29.67,SW,225,0.0,0.0,71,0.00,,,0.00,WUHU216HW,2013-08-19 02:26:00,
2013-08-18 19:31:00,67.4,58.1,29.67,SW,225,0.0,0.0,72,0.00,,,0.00,WUHU216HW,2013-08-19 02:31:00,
2013-08-18 19:36:00,67.1,57.7,29.67,SW,225,0.0,0.0,72,0.00,,,0.00,WUHU216HW,2013-08-19 02:36:00,
2013-08-18 19:41:00,66.7,57.4,29.67,SW,225,0.0,0.0,72,0.00,,,0.00,WUHU216HW,2013-08-19 02:41:00,
2013-08-18 19:46:00,66.5,57.6,29.68,SW,225,0.0,0.0,73,0.00,,,0.00,WUHU216HW,2013-08-19 02:46:00,
2013-08-18 19:51:00,66.3,57.4,29.68,SW,225,0.0,0.0,73,0.00,,,0.00,WUHU216HW,2013-08-19 02:51:00,
2013-08-18 19:56:00,66.0,57.4,29.68,SW,225,0.0,0.0,74,0.00,,,0.00,WUHU216HW,2013-08-19 02:56:00,
2013-08-18 20:01:00,65.6,57.1,29.68,SW,225,0.0,0.0,74,0.00,,,0.00,WUHU216HW,2013-08-19 03:01:00,
2013-08-18 20:06:00,65.4,56.9,29.67,SW,225,0.0,0.0,74,0.00,,,0.00,WUHU216HW,2013-08-19 03:06:00,
2013-08-18 20:11:00,65.1,56.9,29.67,SW,225,0.0,0.0,75,0.00,,,0.00,WUHU216HW,2013-08-19 03:11:00,
2013-08-18 20:16:00,64.7,56.6,29.68,SW,225,0.0,0.0,75,0.00,,,0.00,WUHU216HW,2013-08-19 03:16:00,
2013-08-18 20:21:00,64.5,56.8,29.68,SW,225,0.0,0.0,76,0.00,,,0.00,WUHU216HW,2013-08-19 03:21:00,
2013-08-18 20:26:00,64.2,56.4,29.68,SW,225,0.0,0.0,76,0.00,,,0.00,WUHU216HW,2013-08-19 03:26:00,
2013-08-18 20:31:00,64.0,56.3,29.67,SW,225,0.0,0.0,76,0.00,,,0.00,WUHU216HW,2013-08-19 03:31:00,
2013-08-18 20:36:00,63.6,56.3,29.68,SW,225,0.0,0.0,77,0.00,,,0.00,WUHU216HW,2013-08-19 03:36:00,
2013-08-18 20:41:00,63.6,56.6,29.68,SW,225,0.0,0.0,78,0.00,,,0.00,WUHU216HW,2013-08-19 03:41:00,
2013-08-18 20:46:00,63.3,56.3,29.68,SW,225,0.0,0.0,78,0.00,,,0.00,WUHU216HW,2013-08-19 03:46:00,
2013-08-18 20:51:00,63.1,56.1,29.69,SW,225,0.0,0.0,78,0.00,,,0.00,WUHU216HW,2013-08-19 03:51:00,
2013-08-18 20:56:00,62.9,55.9,29.69,SW,225,0.0,0.0,78,0.00,,,0.00,WUHU216HW,2013-08-19 03:56:00,
2013-08-18 21:01:00,62.7,55.7,29.68,SW,225,0.0,0.0,78,0.00,,,0.00,WUHU216HW,2013-08-19 04:01:00,
2013-08-18 21:06:00,62.4,55.4,29.69,SW,225,0.0,0.0,78,0.00,,,0.00,WUHU216HW,2013-08-19 04:06:00,
2013-08-18 21:11:00,62.4,55.7,29.69,SW,225,0.0,0.0,79,0.00,,,0.00,WUHU216HW,2013-08-19 04:11:00,
2013-08-18 21:16:00,62.2,55.6,29.69,SW,225,0.0,0.0,79,0.00,,,0.00,WUHU216HW,2013-08-19 04:16:00,
2013-08-18 21:21:00,62.0,55.4,29.69,SW,225,0.0,0.0,79,0.00,,,0.00,WUHU216HW,2013-08-19 04:21:00,
2013-08-18 21:26:00,61.8,55.6,29.69,SW,225,0.0,0.0,80,0.00,,,0.00,WUHU216HW,2013-08-19 04:26:00,
2013-08-18 21:31:00,61.8,55.6,29.69,SW,225,0.0,0.0,80,0.00,,,0.00,WUHU216HW,2013-08-19 04:31:00,
2013-08-18 21:36:00,61.8,55.6,29.69,SW,225,0.0,0.0,80,0.00,,,0.00,WUHU216HW,2013-08-19 04:36:00,
2013-08-18 21:41:00,61.8,55.9,29.69,SW,225,0.0,0.0,81,0.00,,,0.00,WUHU216HW,2013-08-19 04:41:00,
2013-08-18 21:46:00,61.8,55.9,29.69,SW,225,0.0,0.0,81,0.00,,,0.00,WUHU216HW,2013-08-19 04:46:00,
2013-08-18 21:51:00,62.0,56.1,29.69,SW,225,0.0,0.0,81,0.00,,,0.00,WUHU216HW,2013-08-19 04:51:00,
2013-08-18 21:56:00,62.0,56.1,29.69,SW,225,0.0,0.0,81,0.00,,,0.00,WUHU216HW,2013-08-19 04:56:00,
2013-08-18 22:01:00,62.0,56.1,29.69,SW,225,0.0,0.0,81,0.00,,,0.00,WUHU216HW,2013-08-19 05:01:00,
2013-08-18 22:06:00,62.2,56.3,29.69,SW,225,0.0,0.0,81,0.00,,,0.00,WUHU216HW,2013-08-19 05:06:00,
2013-08-18 22:11:00,62.2,56.6,29.69,SW,225,0.0,0.0,82,0.00,,,0.00,WUHU216HW,2013-08-19 05:11:00,
2013-08-18 22:16:00,62.2,56.6,29.69,SW,225,0.0,0.0,82,0.00,,,0.00,WUHU216HW,2013-08-19 05:16:00,
2013-08-18 22:21:00,62.2,56.6,29.69,SW,225,0.0,0.0,82,0.00,,,0.00,WUHU216HW,2013-08-19 05:21:00,
2013-08-18 22:26:00,62.2,56.6,29.69,SW,225,0.0,0.0,82,0.00,,,0.00,WUHU216HW,2013-08-19 05:26:00,
2013-08-18 22:31:00,62.0,56.4,29.69,SW,225,0.0,0.0,82,0.00,,,0.00,WUHU216HW,2013-08-19 05:31:00,
2013-08-18 22:36:00,62.0,56.4,29.69,SW,225,0.0,0.0,82,0.00,,,0.00,WUHU216HW,2013-08-19 05:36:00,
2013-08-18 22:41:00,61.8,56.3,29.69,SW,225,0.0,0.0,82,0.00,,,0.00,WUHU216HW,2013-08-19 05:41:00,
2013-08-18 22:46:00,61.5,55.9,29.69,SW,225,0.0,0.0,82,0.00,,,0.00,WUHU216HW,2013-08-19 05:46:00,
2013-08-18 22:51:00,61.3,55.8,29.69,SW,225,0.0,0.0,82,0.00,,,0.00,WUHU216HW,2013-08-19 05:51:00,
2013-08-18 22:56:00,60.9,55.4,29.70,SW,225,0.0,0.0,82,0.00,,,0.00,WUHU216HW,2013-08-19 05:56:00,
2013-08-18 23:01:00,60.9,55.8,29.69,SW,225,0.0,0.0,83,0.00,,,0.00,WUHU216HW,2013-08-19 06:01:00,
2013-08-18 23:06:00,60.6,55.1,29.69,SW,225,0.0,0.0,82,0.00,,,0.00,WUHU216HW,2013-08-19 06:06:00,
2013-08-18 23:11:00,60.4,55.2,29.69,SW,225,0.0,0.0,83,0.00,,,0.00,WUHU216HW,2013-08-19 06:11:00,
2013-08-18 23:16:00,60.0,54.9,29.69,SW,225,0.0,0.0,83,0.00,,,0.00,WUHU216HW,2013-08-19 06:16:00,
2013-08-18 23:21:00,59.7,54.5,29.70,SW,225,0.0,0.0,83,0.00,,,0.00,WUHU216HW,2013-08-19 06:21:00,
2013-08-18 23:26:00,59.5,54.7,29.70,SW,225,0.0,0.0,84,0.00,,,0.00,WUHU216HW,2013-08-19 06:26:00,
2013-08-18 23:31:00,59.5,54.7,29.69,SW,225,0.0,0.0,84,0.00,,,0.00,WUHU216HW,2013-08-19 06:31:00,
2013-08-18 23:36:00,59.5,54.7,29.70,SW,225,0.0,0.0,84,0.00,,,0.00,WUHU216HW,2013-08-19 06:36:00,
2013-08-18 23:41:00,59.1,54.3,29.70,SW,225,0.0,0.0,84,0.00,,,0.00,WUHU216HW,2013-08-19 06:41:00,
2013-08-18 23:46:00,59.1,54.3,29.69,SW,225,0.0,0.0,84,0.00,,,0.00,WUHU216HW,2013-08-19 06:46:00,
2013-08-18 23:51:00,58.8,53.9,29.70,SW,225,0.0,0.0,84,0.00,,,0.00,WUHU216HW,2013-08-19 06:51:00,
2013-08-18 23:56:00,58.8,53.9,29.70,SW,225,0.0,0.0,84,0.00,,,0.00,WUHU216HW,2013-08-19 06:56:00,